sensor_id;sensor_type;location;lat;lon;timestamp;temperature;humidity
35113;DHT22;21291;47.104;15.486;2022-07-06T00:01:38;17.90;94.60
35113;DHT22;21291;47.104;15.486;2022-07-06T00:04:04;17.80;93.90
35113;DHT22;21291;47.104;15.486;2022-07-06T00:06:30;17.70;95.30
35113;DHT22;21291;47.104;15.486;2022-07-06T00:08:56;17.70;94.60
35113;DHT22;21291;47.104;15.486;2022-07-06T00:11:22;17.70;95.50
35113;DHT22;21291;47.104;15.486;2022-07-06T00:13:48;17.60;95.90
35113;DHT22;21291;47.104;15.486;2022-07-06T00:16:15;17.60;95.70
35113;DHT22;21291;47.104;15.486;2022-07-06T00:18:43;17.60;94.80
35113;DHT22;21291;47.104;15.486;2022-07-06T00:21:09;17.50;96.30
35113;DHT22;21291;47.104;15.486;2022-07-06T00:23:35;17.50;95.30
35113;DHT22;21291;47.104;15.486;2022-07-06T00:26:00;17.50;96.10
35113;DHT22;21291;47.104;15.486;2022-07-06T00:28:26;17.40;96.10
35113;DHT22;21291;47.104;15.486;2022-07-06T00:30:52;17.40;95.40
35113;DHT22;21291;47.104;15.486;2022-07-06T00:33:18;17.30;95.30
35113;DHT22;21291;47.104;15.486;2022-07-06T00:35:44;17.30;96.10
35113;DHT22;21291;47.104;15.486;2022-07-06T00:38:09;17.30;96.50
35113;DHT22;21291;47.104;15.486;2022-07-06T00:40:35;17.30;95.50
35113;DHT22;21291;47.104;15.486;2022-07-06T00:43:01;17.20;95.20
35113;DHT22;21291;47.104;15.486;2022-07-06T00:45:27;17.20;95.80
35113;DHT22;21291;47.104;15.486;2022-07-06T00:47:52;17.10;94.40
35113;DHT22;21291;47.104;15.486;2022-07-06T00:50:18;17.10;96.60
35113;DHT22;21291;47.104;15.486;2022-07-06T00:52:48;17.10;95.70
35113;DHT22;21291;47.104;15.486;2022-07-06T00:55:16;17.10;96.60
35113;DHT22;21291;47.104;15.486;2022-07-06T00:57:42;17.10;96.60
35113;DHT22;21291;47.104;15.486;2022-07-06T01:00:11;17.00;95.90
35113;DHT22;21291;47.104;15.486;2022-07-06T01:02:37;17.00;96.30
35113;DHT22;21291;47.104;15.486;2022-07-06T01:05:08;17.00;95.80
35113;DHT22;21291;47.104;15.486;2022-07-06T01:07:36;17.00;96.40
35113;DHT22;21291;47.104;15.486;2022-07-06T01:10:06;16.90;96.50
35113;DHT22;21291;47.104;15.486;2022-07-06T01:12:35;16.90;96.70
35113;DHT22;21291;47.104;15.486;2022-07-06T01:15:05;16.90;96.30
35113;DHT22;21291;47.104;15.486;2022-07-06T01:17:32;16.80;96.30
35113;DHT22;21291;47.104;15.486;2022-07-06T01:22:33;16.80;96.70
35113;DHT22;21291;47.104;15.486;2022-07-06T01:24:58;16.70;97.30
35113;DHT22;21291;47.104;15.486;2022-07-06T01:27:24;16.70;96.10
35113;DHT22;21291;47.104;15.486;2022-07-06T01:29:50;16.70;97.20
35113;DHT22;21291;47.104;15.486;2022-07-06T01:32:15;16.80;97.30
35113;DHT22;21291;47.104;15.486;2022-07-06T01:34:41;16.80;97.10
35113;DHT22;21291;47.104;15.486;2022-07-06T01:37:07;16.80;96.20
35113;DHT22;21291;47.104;15.486;2022-07-06T01:39:32;16.70;96.70
35113;DHT22;21291;47.104;15.486;2022-07-06T01:41:58;16.70;96.60
35113;DHT22;21291;47.104;15.486;2022-07-06T01:44:23;16.70;96.30
35113;DHT22;21291;47.104;15.486;2022-07-06T01:46:49;16.60;96.60
35113;DHT22;21291;47.104;15.486;2022-07-06T01:49:15;16.60;96.70
35113;DHT22;21291;47.104;15.486;2022-07-06T01:51:40;16.60;97.20
35113;DHT22;21291;47.104;15.486;2022-07-06T01:54:06;16.60;97.80
35113;DHT22;21291;47.104;15.486;2022-07-06T01:56:31;16.60;98.20
35113;DHT22;21291;47.104;15.486;2022-07-06T01:58:57;16.60;97.30
35113;DHT22;21291;47.104;15.486;2022-07-06T02:01:23;16.60;96.10
35113;DHT22;21291;47.104;15.486;2022-07-06T02:03:49;16.50;97.10
35113;DHT22;21291;47.104;15.486;2022-07-06T02:06:15;16.50;97.90
35113;DHT22;21291;47.104;15.486;2022-07-06T02:08:41;16.50;97.40
35113;DHT22;21291;47.104;15.486;2022-07-06T02:11:08;16.50;97.60
35113;DHT22;21291;47.104;15.486;2022-07-06T02:13:34;16.50;97.50
35113;DHT22;21291;47.104;15.486;2022-07-06T02:16:01;16.50;98.00
35113;DHT22;21291;47.104;15.486;2022-07-06T02:18:27;16.50;96.80
35113;DHT22;21291;47.104;15.486;2022-07-06T02:20:52;16.40;98.00
35113;DHT22;21291;47.104;15.486;2022-07-06T02:23:18;16.50;96.60
35113;DHT22;21291;47.104;15.486;2022-07-06T02:25:44;16.40;96.90
35113;DHT22;21291;47.104;15.486;2022-07-06T02:28:09;16.40;97.60
35113;DHT22;21291;47.104;15.486;2022-07-06T02:30:35;16.40;96.40
35113;DHT22;21291;47.104;15.486;2022-07-06T02:33:01;16.50;97.10
35113;DHT22;21291;47.104;15.486;2022-07-06T02:35:27;16.40;97.70
35113;DHT22;21291;47.104;15.486;2022-07-06T02:37:52;16.40;97.40
35113;DHT22;21291;47.104;15.486;2022-07-06T02:40:18;16.40;97.20
35113;DHT22;21291;47.104;15.486;2022-07-06T02:42:44;16.30;97.70
35113;DHT22;21291;47.104;15.486;2022-07-06T02:45:10;16.40;98.10
35113;DHT22;21291;47.104;15.486;2022-07-06T02:47:35;16.30;96.70
35113;DHT22;21291;47.104;15.486;2022-07-06T02:50:01;16.30;96.60
35113;DHT22;21291;47.104;15.486;2022-07-06T02:52:27;16.20;98.50
35113;DHT22;21291;47.104;15.486;2022-07-06T02:54:52;16.20;98.00
35113;DHT22;21291;47.104;15.486;2022-07-06T02:57:19;16.20;96.70
35113;DHT22;21291;47.104;15.486;2022-07-06T02:59:44;16.10;99.00
35113;DHT22;21291;47.104;15.486;2022-07-06T03:02:11;16.20;97.90
35113;DHT22;21291;47.104;15.486;2022-07-06T03:04:37;16.10;98.00
35113;DHT22;21291;47.104;15.486;2022-07-06T03:07:03;16.10;97.30
35113;DHT22;21291;47.104;15.486;2022-07-06T03:09:29;16.10;97.40
35113;DHT22;21291;47.104;15.486;2022-07-06T03:11:54;16.00;97.80
35113;DHT22;21291;47.104;15.486;2022-07-06T03:14:20;16.00;97.40
35113;DHT22;21291;47.104;15.486;2022-07-06T03:16:46;16.00;97.70
35113;DHT22;21291;47.104;15.486;2022-07-06T03:19:12;16.00;98.90
35113;DHT22;21291;47.104;15.486;2022-07-06T03:21:40;16.00;98.60
35113;DHT22;21291;47.104;15.486;2022-07-06T03:24:05;16.00;98.40
35113;DHT22;21291;47.104;15.486;2022-07-06T03:26:31;16.10;98.10
35113;DHT22;21291;47.104;15.486;2022-07-06T03:28:56;16.00;98.20
35113;DHT22;21291;47.104;15.486;2022-07-06T03:31:22;16.00;97.70
35113;DHT22;21291;47.104;15.486;2022-07-06T03:33:48;16.00;97.90
35113;DHT22;21291;47.104;15.486;2022-07-06T03:36:13;16.00;98.10
35113;DHT22;21291;47.104;15.486;2022-07-06T03:38:39;16.00;97.70
35113;DHT22;21291;47.104;15.486;2022-07-06T03:41:05;16.00;97.50
35113;DHT22;21291;47.104;15.486;2022-07-06T03:43:30;16.10;97.70
35113;DHT22;21291;47.104;15.486;2022-07-06T03:45:56;16.10;98.30
35113;DHT22;21291;47.104;15.486;2022-07-06T03:48:22;16.10;97.90
35113;DHT22;21291;47.104;15.486;2022-07-06T03:50:48;16.10;96.80
35113;DHT22;21291;47.104;15.486;2022-07-06T03:53:13;16.10;97.80
35113;DHT22;21291;47.104;15.486;2022-07-06T03:55:39;16.10;97.80
35113;DHT22;21291;47.104;15.486;2022-07-06T03:58:05;16.10;97.90
35113;DHT22;21291;47.104;15.486;2022-07-06T04:00:31;16.20;98.10
35113;DHT22;21291;47.104;15.486;2022-07-06T04:02:56;16.20;97.80
35113;DHT22;21291;47.104;15.486;2022-07-06T04:05:22;16.20;98.60
35113;DHT22;21291;47.104;15.486;2022-07-06T04:07:48;16.30;98.50
35113;DHT22;21291;47.104;15.486;2022-07-06T04:10:15;16.30;98.70
35113;DHT22;21291;47.104;15.486;2022-07-06T04:12:45;16.40;97.50
35113;DHT22;21291;47.104;15.486;2022-07-06T04:15:11;16.40;97.70
35113;DHT22;21291;47.104;15.486;2022-07-06T04:17:38;16.40;98.20
35113;DHT22;21291;47.104;15.486;2022-07-06T04:20:23;16.50;97.60
35113;DHT22;21291;47.104;15.486;2022-07-06T04:22:49;16.50;96.80
35113;DHT22;21291;47.104;15.486;2022-07-06T04:25:15;16.60;97.90
35113;DHT22;21291;47.104;15.486;2022-07-06T04:27:41;16.60;97.80
35113;DHT22;21291;47.104;15.486;2022-07-06T04:30:07;16.60;98.40
35113;DHT22;21291;47.104;15.486;2022-07-06T04:32:34;16.60;98.70
35113;DHT22;21291;47.104;15.486;2022-07-06T04:35:00;16.60;98.50
35113;DHT22;21291;47.104;15.486;2022-07-06T04:37:26;16.60;98.30
35113;DHT22;21291;47.104;15.486;2022-07-06T04:39:52;16.60;98.50
35113;DHT22;21291;47.104;15.486;2022-07-06T04:42:18;16.60;99.50
35113;DHT22;21291;47.104;15.486;2022-07-06T04:44:44;16.50;98.70
35113;DHT22;21291;47.104;15.486;2022-07-06T04:47:25;16.50;98.10
35113;DHT22;21291;47.104;15.486;2022-07-06T04:49:51;16.50;98.70
35113;DHT22;21291;47.104;15.486;2022-07-06T04:52:17;16.50;99.00
35113;DHT22;21291;47.104;15.486;2022-07-06T04:54:43;16.50;98.90
35113;DHT22;21291;47.104;15.486;2022-07-06T04:57:08;16.50;98.60
35113;DHT22;21291;47.104;15.486;2022-07-06T04:59:34;16.40;99.30
35113;DHT22;21291;47.104;15.486;2022-07-06T05:02:00;16.40;98.70
35113;DHT22;21291;47.104;15.486;2022-07-06T05:04:25;16.50;99.80
35113;DHT22;21291;47.104;15.486;2022-07-06T05:06:51;16.50;99.00
35113;DHT22;21291;47.104;15.486;2022-07-06T05:09:17;16.50;99.90
35113;DHT22;21291;47.104;15.486;2022-07-06T05:11:42;16.50;99.90
35113;DHT22;21291;47.104;15.486;2022-07-06T05:14:09;16.60;99.90
35113;DHT22;21291;47.104;15.486;2022-07-06T05:16:35;16.60;99.90
35113;DHT22;21291;47.104;15.486;2022-07-06T05:19:01;16.60;99.90
35113;DHT22;21291;47.104;15.486;2022-07-06T05:21:27;16.70;99.90
35113;DHT22;21291;47.104;15.486;2022-07-06T05:23:52;16.60;99.90
35113;DHT22;21291;47.104;15.486;2022-07-06T05:26:18;16.70;99.90
35113;DHT22;21291;47.104;15.486;2022-07-06T05:28:44;16.70;99.90
35113;DHT22;21291;47.104;15.486;2022-07-06T05:31:09;16.80;99.90
35113;DHT22;21291;47.104;15.486;2022-07-06T05:33:35;16.90;99.90
35113;DHT22;21291;47.104;15.486;2022-07-06T05:36:00;16.90;99.90
35113;DHT22;21291;47.104;15.486;2022-07-06T05:38:26;17.00;99.90
35113;DHT22;21291;47.104;15.486;2022-07-06T05:40:52;17.00;99.90
35113;DHT22;21291;47.104;15.486;2022-07-06T05:43:18;17.00;99.90
35113;DHT22;21291;47.104;15.486;2022-07-06T05:45:43;17.10;99.90
35113;DHT22;21291;47.104;15.486;2022-07-06T05:48:09;17.10;99.90
35113;DHT22;21291;47.104;15.486;2022-07-06T05:50:53;17.20;99.90
35113;DHT22;21291;47.104;15.486;2022-07-06T05:53:19;17.30;99.90
35113;DHT22;21291;47.104;15.486;2022-07-06T05:55:45;17.30;99.90
35113;DHT22;21291;47.104;15.486;2022-07-06T05:58:11;17.30;99.90
35113;DHT22;21291;47.104;15.486;2022-07-06T06:00:37;17.40;99.90
35113;DHT22;21291;47.104;15.486;2022-07-06T06:03:02;17.40;99.90
35113;DHT22;21291;47.104;15.486;2022-07-06T06:05:28;17.50;99.90
35113;DHT22;21291;47.104;15.486;2022-07-06T06:07:54;17.50;99.90
35113;DHT22;21291;47.104;15.486;2022-07-06T06:10:20;17.60;99.90
35113;DHT22;21291;47.104;15.486;2022-07-06T06:12:50;17.60;99.90
35113;DHT22;21291;47.104;15.486;2022-07-06T06:15:15;17.60;99.90
35113;DHT22;21291;47.104;15.486;2022-07-06T06:17:41;17.70;99.90
35113;DHT22;21291;47.104;15.486;2022-07-06T06:20:09;17.70;98.90
35113;DHT22;21291;47.104;15.486;2022-07-06T06:22:49;17.80;98.50
35113;DHT22;21291;47.104;15.486;2022-07-06T06:25:16;18.00;97.00
35113;DHT22;21291;47.104;15.486;2022-07-06T06:27:42;18.10;96.00
35113;DHT22;21291;47.104;15.486;2022-07-06T06:30:08;18.20;95.80
35113;DHT22;21291;47.104;15.486;2022-07-06T06:32:34;18.40;94.40
35113;DHT22;21291;47.104;15.486;2022-07-06T06:34:59;18.50;95.90
35113;DHT22;21291;47.104;15.486;2022-07-06T06:37:25;18.60;96.00
35113;DHT22;21291;47.104;15.486;2022-07-06T06:39:51;18.70;93.80
35113;DHT22;21291;47.104;15.486;2022-07-06T06:42:16;18.80;93.40
35113;DHT22;21291;47.104;15.486;2022-07-06T06:44:42;18.90;94.90
35113;DHT22;21291;47.104;15.486;2022-07-06T06:47:07;18.90;95.20
35113;DHT22;21291;47.104;15.486;2022-07-06T06:49:33;18.90;95.00
35113;DHT22;21291;47.104;15.486;2022-07-06T06:51:59;19.00;93.10
35113;DHT22;21291;47.104;15.486;2022-07-06T06:54:24;19.20;91.40
35113;DHT22;21291;47.104;15.486;2022-07-06T06:56:50;19.20;91.80
35113;DHT22;21291;47.104;15.486;2022-07-06T06:59:16;19.30;91.10
35113;DHT22;21291;47.104;15.486;2022-07-06T07:01:42;19.30;90.40
35113;DHT22;21291;47.104;15.486;2022-07-06T07:04:07;19.50;90.50
35113;DHT22;21291;47.104;15.486;2022-07-06T07:06:33;19.50;89.80
35113;DHT22;21291;47.104;15.486;2022-07-06T07:08:59;19.70;85.70
35113;DHT22;21291;47.104;15.486;2022-07-06T07:11:25;19.80;86.60
35113;DHT22;21291;47.104;15.486;2022-07-06T07:13:51;19.90;85.30
35113;DHT22;21291;47.104;15.486;2022-07-06T07:16:16;19.90;83.50
35113;DHT22;21291;47.104;15.486;2022-07-06T07:18:42;20.00;86.30
35113;DHT22;21291;47.104;15.486;2022-07-06T07:21:07;20.00;81.50
35113;DHT22;21291;47.104;15.486;2022-07-06T07:23:33;20.10;84.60
35113;DHT22;21291;47.104;15.486;2022-07-06T07:25:59;20.10;80.00
35113;DHT22;21291;47.104;15.486;2022-07-06T07:28:25;20.30;81.60
35113;DHT22;21291;47.104;15.486;2022-07-06T07:30:50;20.30;80.80
35113;DHT22;21291;47.104;15.486;2022-07-06T07:33:16;20.40;80.00
35113;DHT22;21291;47.104;15.486;2022-07-06T07:35:42;20.40;78.40
35113;DHT22;21291;47.104;15.486;2022-07-06T07:38:08;20.50;79.70
35113;DHT22;21291;47.104;15.486;2022-07-06T07:40:36;20.60;77.20
35113;DHT22;21291;47.104;15.486;2022-07-06T07:43:08;20.70;77.40
35113;DHT22;21291;47.104;15.486;2022-07-06T07:56:24;20.80;77.90
35113;DHT22;21291;47.104;15.486;2022-07-06T07:58:49;20.90;79.50
35113;DHT22;21291;47.104;15.486;2022-07-06T08:01:15;20.90;76.30
35113;DHT22;21291;47.104;15.486;2022-07-06T08:03:40;21.00;77.50
35113;DHT22;21291;47.104;15.486;2022-07-06T08:06:06;21.00;76.60
35113;DHT22;21291;47.104;15.486;2022-07-06T08:08:32;21.10;75.10
35113;DHT22;21291;47.104;15.486;2022-07-06T08:10:57;21.10;74.70
35113;DHT22;21291;47.104;15.486;2022-07-06T08:13:23;21.20;75.30
35113;DHT22;21291;47.104;15.486;2022-07-06T08:16:14;21.20;71.40
35113;DHT22;21291;47.104;15.486;2022-07-06T08:25:37;21.80;62.20
35113;DHT22;21291;47.104;15.486;2022-07-06T08:28:05;22.10;62.20
35113;DHT22;21291;47.104;15.486;2022-07-06T08:30:31;22.30;58.60
35113;DHT22;21291;47.104;15.486;2022-07-06T08:33:00;22.40;55.50
35113;DHT22;21291;47.104;15.486;2022-07-06T09:07:44;22.80;51.90
35113;DHT22;21291;47.104;15.486;2022-07-06T09:10:12;22.90;49.70
35113;DHT22;21291;47.104;15.486;2022-07-06T09:12:37;23.00;49.20
35113;DHT22;21291;47.104;15.486;2022-07-06T09:15:03;22.90;51.70
35113;DHT22;21291;47.104;15.486;2022-07-06T09:17:29;22.90;52.20
35113;DHT22;21291;47.104;15.486;2022-07-06T09:19:56;22.90;51.40
35113;DHT22;21291;47.104;15.486;2022-07-06T09:22:30;23.00;50.50
35113;DHT22;21291;47.104;15.486;2022-07-06T09:25:07;23.20;51.40
35113;DHT22;21291;47.104;15.486;2022-07-06T09:27:47;23.30;53.60
35113;DHT22;21291;47.104;15.486;2022-07-06T09:30:16;23.30;51.90
35113;DHT22;21291;47.104;15.486;2022-07-06T09:32:45;23.40;52.70
35113;DHT22;21291;47.104;15.486;2022-07-06T09:35:30;23.30;52.20
35113;DHT22;21291;47.104;15.486;2022-07-06T09:38:10;23.20;54.60
35113;DHT22;21291;47.104;15.486;2022-07-06T09:40:41;23.10;51.80
35113;DHT22;21291;47.104;15.486;2022-07-06T09:43:12;23.20;55.20
35113;DHT22;21291;47.104;15.486;2022-07-06T09:45:39;23.30;54.80
35113;DHT22;21291;47.104;15.486;2022-07-06T09:48:15;23.40;48.70
35113;DHT22;21291;47.104;15.486;2022-07-06T09:51:02;23.60;51.90
35113;DHT22;21291;47.104;15.486;2022-07-06T09:53:28;23.80;49.80
35113;DHT22;21291;47.104;15.486;2022-07-06T09:55:55;24.00;48.30
35113;DHT22;21291;47.104;15.486;2022-07-06T09:58:22;24.10;49.30
35113;DHT22;21291;47.104;15.486;2022-07-06T10:00:48;24.10;46.50
35113;DHT22;21291;47.104;15.486;2022-07-06T10:03:15;24.20;47.30
35113;DHT22;21291;47.104;15.486;2022-07-06T10:05:44;24.20;48.20
35113;DHT22;21291;47.104;15.486;2022-07-06T10:08:17;24.20;49.60
35113;DHT22;21291;47.104;15.486;2022-07-06T10:10:45;24.10;49.40
35113;DHT22;21291;47.104;15.486;2022-07-06T10:13:14;24.10;49.00
35113;DHT22;21291;47.104;15.486;2022-07-06T10:15:45;24.10;48.30
35113;DHT22;21291;47.104;15.486;2022-07-06T10:18:11;24.10;48.70
35113;DHT22;21291;47.104;15.486;2022-07-06T10:20:39;24.10;47.00
35113;DHT22;21291;47.104;15.486;2022-07-06T10:23:07;24.20;50.70
35113;DHT22;21291;47.104;15.486;2022-07-06T10:25:34;24.20;50.10
35113;DHT22;21291;47.104;15.486;2022-07-06T10:28:00;24.20;45.70
35113;DHT22;21291;47.104;15.486;2022-07-06T10:34:11;24.50;46.70
35113;DHT22;21291;47.104;15.486;2022-07-06T10:36:47;24.60;45.90
35113;DHT22;21291;47.104;15.486;2022-07-06T10:39:30;24.70;46.40
35113;DHT22;21291;47.104;15.486;2022-07-06T10:45:13;25.00;46.60
35113;DHT22;21291;47.104;15.486;2022-07-06T11:14:53;25.70;46.30
35113;DHT22;21291;47.104;15.486;2022-07-06T11:17:19;25.90;42.60
35113;DHT22;21291;47.104;15.486;2022-07-06T11:20:08;25.90;37.80
35113;DHT22;21291;47.104;15.486;2022-07-06T11:49:09;27.50;41.60
35113;DHT22;21291;47.104;15.486;2022-07-06T12:04:03;28.10;32.80
35113;DHT22;21291;47.104;15.486;2022-07-06T12:06:48;28.30;35.80
35113;DHT22;21291;47.104;15.486;2022-07-06T12:09:38;28.40;31.80
35113;DHT22;21291;47.104;15.486;2022-07-06T12:12:05;28.60;35.90
35113;DHT22;21291;47.104;15.486;2022-07-06T12:14:46;28.60;34.30
35113;DHT22;21291;47.104;15.486;2022-07-06T12:17:13;28.40;34.60
35113;DHT22;21291;47.104;15.486;2022-07-06T12:23:38;28.10;35.00
35113;DHT22;21291;47.104;15.486;2022-07-06T15:16:56;36.10;31.40
35113;DHT22;21291;47.104;15.486;2022-07-06T15:19:31;36.10;29.70
35113;DHT22;21291;47.104;15.486;2022-07-06T15:22:17;35.50;28.60
35113;DHT22;21291;47.104;15.486;2022-07-06T15:24:43;35.20;29.50
35113;DHT22;21291;47.104;15.486;2022-07-06T15:27:09;34.60;30.90
35113;DHT22;21291;47.104;15.486;2022-07-06T15:30:00;33.60;30.50
35113;DHT22;21291;47.104;15.486;2022-07-06T16:38:16;30.90;36.20
35113;DHT22;21291;47.104;15.486;2022-07-06T16:40:45;30.40;39.70
35113;DHT22;21291;47.104;15.486;2022-07-06T16:43:12;30.00;37.10
35113;DHT22;21291;47.104;15.486;2022-07-06T16:45:43;29.60;41.00
35113;DHT22;21291;47.104;15.486;2022-07-06T16:48:30;29.30;39.70
35113;DHT22;21291;47.104;15.486;2022-07-06T16:50:56;29.50;41.10
35113;DHT22;21291;47.104;15.486;2022-07-06T16:53:28;29.40;43.60
35113;DHT22;21291;47.104;15.486;2022-07-06T16:56:32;29.40;43.30
35113;DHT22;21291;47.104;15.486;2022-07-06T16:59:21;29.30;42.70
35113;DHT22;21291;47.104;15.486;2022-07-06T17:01:47;29.10;44.00
35113;DHT22;21291;47.104;15.486;2022-07-06T17:04:18;28.80;43.00
35113;DHT22;21291;47.104;15.486;2022-07-06T17:06:45;28.50;45.30
35113;DHT22;21291;47.104;15.486;2022-07-06T17:09:18;28.10;45.00
35113;DHT22;21291;47.104;15.486;2022-07-06T17:11:46;27.80;49.10
35113;DHT22;21291;47.104;15.486;2022-07-06T17:14:21;27.50;49.90
35113;DHT22;21291;47.104;15.486;2022-07-06T17:16:55;27.20;46.20
35113;DHT22;21291;47.104;15.486;2022-07-06T17:19:22;27.00;46.20
35113;DHT22;21291;47.104;15.486;2022-07-06T17:22:14;26.80;46.80
35113;DHT22;21291;47.104;15.486;2022-07-06T18:04:36;25.00;60.60
35113;DHT22;21291;47.104;15.486;2022-07-06T18:10:55;24.80;62.50
35113;DHT22;21291;47.104;15.486;2022-07-06T18:14:22;24.70;62.10
35113;DHT22;21291;47.104;15.486;2022-07-06T18:17:27;24.50;60.90
35113;DHT22;21291;47.104;15.486;2022-07-06T18:19:57;24.50;61.00
35113;DHT22;21291;47.104;15.486;2022-07-06T18:22:25;24.40;62.80
35113;DHT22;21291;47.104;15.486;2022-07-06T18:24:54;24.40;63.00
35113;DHT22;21291;47.104;15.486;2022-07-06T18:28:00;24.30;62.40
35113;DHT22;21291;47.104;15.486;2022-07-06T18:34:00;24.20;61.40
35113;DHT22;21291;47.104;15.486;2022-07-06T19:02:32;23.70;60.20
35113;DHT22;21291;47.104;15.486;2022-07-06T19:05:08;23.60;59.60
35113;DHT22;21291;47.104;15.486;2022-07-06T19:15:02;23.40;63.50
35113;DHT22;21291;47.104;15.486;2022-07-06T19:20:53;23.20;64.30
35113;DHT22;21291;47.104;15.486;2022-07-06T19:25:57;23.00;66.80
35113;DHT22;21291;47.104;15.486;2022-07-06T20:48:14;21.30;77.50
35113;DHT22;21291;47.104;15.486;2022-07-06T20:50:40;21.30;77.60
35113;DHT22;21291;47.104;15.486;2022-07-06T20:53:05;21.20;76.80
35113;DHT22;21291;47.104;15.486;2022-07-06T20:59:17;21.20;78.90
35113;DHT22;21291;47.104;15.486;2022-07-06T21:02:00;21.20;73.30
35113;DHT22;21291;47.104;15.486;2022-07-06T21:04:25;21.10;76.20
35113;DHT22;21291;47.104;15.486;2022-07-06T21:06:51;21.00;76.30
35113;DHT22;21291;47.104;15.486;2022-07-06T21:16:11;20.80;78.80
35113;DHT22;21291;47.104;15.486;2022-07-06T21:18:40;20.80;78.80
35113;DHT22;21291;47.104;15.486;2022-07-06T21:21:33;20.70;80.70
35113;DHT22;21291;47.104;15.486;2022-07-06T21:24:17;20.70;80.90
35113;DHT22;21291;47.104;15.486;2022-07-06T21:26:42;20.70;81.40
35113;DHT22;21291;47.104;15.486;2022-07-06T21:29:49;20.60;81.30
35113;DHT22;21291;47.104;15.486;2022-07-06T21:35:52;20.50;79.30
35113;DHT22;21291;47.104;15.486;2022-07-06T21:45:50;20.30;79.80
35113;DHT22;21291;47.104;15.486;2022-07-06T21:49:06;20.10;82.90
35113;DHT22;21291;47.104;15.486;2022-07-06T21:52:33;20.10;81.30
35113;DHT22;21291;47.104;15.486;2022-07-06T21:55:46;20.00;83.40
35113;DHT22;21291;47.104;15.486;2022-07-06T21:59:08;19.90;83.80
35113;DHT22;21291;47.104;15.486;2022-07-06T22:09:16;19.70;84.50
35113;DHT22;21291;47.104;15.486;2022-07-06T22:12:18;19.70;85.60
35113;DHT22;21291;47.104;15.486;2022-07-06T22:14:45;19.60;84.00
35113;DHT22;21291;47.104;15.486;2022-07-06T22:17:10;19.60;86.00
35113;DHT22;21291;47.104;15.486;2022-07-06T22:19:36;19.50;84.50
35113;DHT22;21291;47.104;15.486;2022-07-06T22:22:02;19.50;87.70
35113;DHT22;21291;47.104;15.486;2022-07-06T22:24:28;19.50;86.60
35113;DHT22;21291;47.104;15.486;2022-07-06T22:26:53;19.40;86.90
35113;DHT22;21291;47.104;15.486;2022-07-06T22:29:19;19.40;86.90
35113;DHT22;21291;47.104;15.486;2022-07-06T22:31:45;19.30;85.00
35113;DHT22;21291;47.104;15.486;2022-07-06T22:55:05;19.00;86.10
35113;DHT22;21291;47.104;15.486;2022-07-06T23:00:50;18.90;88.30
35113;DHT22;21291;47.104;15.486;2022-07-06T23:03:18;18.80;89.50
35113;DHT22;21291;47.104;15.486;2022-07-06T23:05:48;18.80;89.30
35113;DHT22;21291;47.104;15.486;2022-07-06T23:08:17;18.70;88.50
35113;DHT22;21291;47.104;15.486;2022-07-06T23:10:50;18.70;87.70
35113;DHT22;21291;47.104;15.486;2022-07-06T23:13:22;18.70;88.00
35113;DHT22;21291;47.104;15.486;2022-07-06T23:18:26;18.60;89.10
35113;DHT22;21291;47.104;15.486;2022-07-06T23:21:03;18.60;89.10
35113;DHT22;21291;47.104;15.486;2022-07-06T23:23:37;18.60;90.10
35113;DHT22;21291;47.104;15.486;2022-07-06T23:26:21;18.50;89.50
35113;DHT22;21291;47.104;15.486;2022-07-06T23:28:46;18.50;88.20
35113;DHT22;21291;47.104;15.486;2022-07-06T23:31:12;18.40;89.20
35113;DHT22;21291;47.104;15.486;2022-07-06T23:33:38;18.40;90.30
35113;DHT22;21291;47.104;15.486;2022-07-06T23:36:07;18.40;87.10
35113;DHT22;21291;47.104;15.486;2022-07-06T23:38:32;18.40;90.10
35113;DHT22;21291;47.104;15.486;2022-07-06T23:41:00;18.30;90.10
35113;DHT22;21291;47.104;15.486;2022-07-06T23:43:29;18.30;89.60
35113;DHT22;21291;47.104;15.486;2022-07-06T23:45:55;18.30;88.60
35113;DHT22;21291;47.104;15.486;2022-07-06T23:48:27;18.20;90.20
35113;DHT22;21291;47.104;15.486;2022-07-06T23:50:53;18.10;89.30
35113;DHT22;21291;47.104;15.486;2022-07-06T23:53:21;18.10;90.00
35113;DHT22;21291;47.104;15.486;2022-07-06T23:55:47;18.00;89.70
35113;DHT22;21291;47.104;15.486;2022-07-06T23:58:13;18.00;90.60
